Atlanta, Georgia
Traffic Map
Current Weather Conditions
Atlanta, Georgia
Clear
Clear
76°
Feels Like: 76°
Wind Chill: 76° Ceiling: Unl
Heat Index: 76° Visibility: 10mi
Dew Point: 69° Wind: 9mph
Humidity: 79% Direction: 250° (WSW)
Pressure: 30.03in Gusts: 0mph
Raw Report DataKATL 280852Z 25008KT 10SM CLR 24/21 A3003 RMK AO2 SLP157 T02440206 56009
Traffic Incident Summary
Active as of:
Severity:
Category:
InformationThere was an issue retrieving the traffic information for this location. Please try a different location or try again shortly.
Advertisements
Track Severe Weather on mobile